ΕΜΥ, Εθνική Μετεωρολογική Υπηρεσία - Δελτία Καιρού, Προγνώσεις

ΑΕΡΟΝΑΥΤΙΛΙΑ

GREEK AIRPORTS CODES

TAF LGTG 151100Z 1512/1521 VRB03KT CAVOK=

EUROPEAN AIRPORTS CODES

LFPO 151230Z 25019KT 9999 BKN039 BKN049 BKN068 13/05 Q1013TEMPO -RA=